Ashland, Alabama
Current Conditions -  °F | °C
As of 9:53 AM on Friday 24 Oct 2014 (Local Time) from KANB Reporting Station
Clear Clear  
Wind Chill: 57°   Ceiling: Unl
Heat Index: 57°   Visibility: 10mi
Dew Point: 48°   Wind: 6mph
Humidity: 72%   Direction: 200°SSW
Pressure: 30.11"   Gusts: NA
Location:  33.27°N, 85.84°W
Report Text: KANB 241453Z AUTO 20005KT 10SM CLR 14/09 A3011 RMK AO2 SLP198 T01390089 53006
Loading
Personal Weather Stations






























Interactive Weather Map New forecast layout! Learn more

10-Day Weather Forecast

Advertisements
Track Severe Weather on mobile